createdAt,value
2019-01-27T00:00:01.169Z,96713.01
2019-01-27T00:02:30.303Z,96705.42
2019-01-27T00:04:59.918Z,96708.22
2019-01-27T00:07:29.172Z,96688.78
2019-01-27T00:09:58.274Z,96686.03
2019-01-27T00:12:27.458Z,96682.15
2019-01-27T00:14:56.553Z,96685.33
2019-01-27T00:17:25.713Z,96676.25
2019-01-27T00:19:55.487Z,96663.81
2019-01-27T00:22:24.929Z,96652.70
2019-01-27T00:24:54.105Z,96659.64
2019-01-27T00:27:23.356Z,96641.56
2019-01-27T00:29:52.834Z,96631.93
2019-01-27T00:32:21.945Z,96637.03
2019-01-27T00:34:51.241Z,96628.30
2019-01-27T00:37:20.359Z,96619.05
2019-01-27T00:39:49.450Z,96611.48
2019-01-27T00:42:18.564Z,96606.86
2019-01-27T00:44:47.698Z,96605.53
2019-01-27T00:47:16.841Z,96610.77
2019-01-27T00:49:45.973Z,96607.45
2019-01-27T00:52:15.063Z,96597.72
2019-01-27T00:54:44.259Z,96604.14
2019-01-27T00:57:13.376Z,96598.52
2019-01-27T00:59:42.508Z,96590.32
2019-01-27T01:02:11.613Z,96587.53
2019-01-27T01:04:40.771Z,96584.91
2019-01-27T01:07:10.019Z,96580.88
2019-01-27T01:09:39.162Z,96581.06
2019-01-27T01:12:08.258Z,96576.63
2019-01-27T01:14:37.404Z,96569.36
2019-01-27T01:17:06.656Z,96572.16
2019-01-27T01:19:36.113Z,96573.05
2019-01-27T01:22:05.661Z,96558.60
2019-01-27T01:24:34.828Z,96556.80
2019-01-27T01:27:03.949Z,96560.59
2019-01-27T01:29:33.080Z,96547.06
2019-01-27T01:32:02.216Z,96543.47
2019-01-27T01:34:31.371Z,96534.70
2019-01-27T01:37:00.525Z,96535.52
2019-01-27T01:39:29.692Z,96536.69
2019-01-27T01:41:59.123Z,96527.34
2019-01-27T01:44:28.560Z,96523.89
2019-01-27T01:46:57.831Z,96509.06
2019-01-27T01:49:26.973Z,96508.08
2019-01-27T01:51:56.112Z,96498.92
2019-01-27T01:54:25.241Z,96500.83
2019-01-27T01:56:54.362Z,96488.96
2019-01-27T01:59:23.514Z,96487.62
2019-01-27T02:01:52.612Z,96482.16
2019-01-27T02:04:21.721Z,96477.53
2019-01-27T02:06:50.827Z,96483.30
2019-01-27T02:09:19.971Z,96482.34
2019-01-27T02:11:49.174Z,96472.91
2019-01-27T02:14:18.367Z,96466.65
2019-01-27T02:16:47.484Z,96452.02
2019-01-27T02:19:16.675Z,96449.99
2019-01-27T02:21:47.171Z,96439.45
2019-01-27T02:24:16.325Z,96433.84
2019-01-27T02:26:45.484Z,96435.81
2019-01-27T02:29:14.617Z,96432.70
2019-01-27T02:31:43.748Z,96418.98
2019-01-27T02:34:12.882Z,96415.70
2019-01-27T02:36:42.044Z,96412.67
2019-01-27T02:39:11.166Z,96402.33
2019-01-27T02:41:40.297Z,96390.13
2019-01-27T02:44:09.405Z,96389.84
2019-01-27T02:46:38.537Z,96391.08
2019-01-27T02:49:07.792Z,96381.36
2019-01-27T02:51:36.901Z,96377.22
2019-01-27T02:54:06.560Z,96377.62
2019-01-27T02:56:35.695Z,96362.80
2019-01-27T02:59:05.136Z,96345.47
2019-01-27T03:01:34.239Z,96342.84
2019-01-27T03:04:03.535Z,96335.48
2019-01-27T03:06:51.622Z,96332.63
2019-01-27T03:09:24.058Z,96323.07
2019-01-27T03:11:53.238Z,96325.36
2019-01-27T03:14:22.667Z,96328.15
2019-01-27T03:16:53.370Z,96321.39
2019-01-27T03:19:22.908Z,96317.76
2019-01-27T03:21:52.002Z,96311.23
2019-01-27T03:24:21.170Z,96290.95
2019-01-27T03:26:50.397Z,96283.00
2019-01-27T03:29:19.535Z,96284.19
2019-01-27T03:31:48.676Z,96282.22
2019-01-27T03:34:17.803Z,96282.88
2019-01-27T03:36:46.937Z,96276.94
2019-01-27T03:39:16.307Z,96270.17
2019-01-27T03:41:45.446Z,96267.25
2019-01-27T03:44:14.653Z,96260.11
2019-01-27T03:46:43.726Z,96249.06
2019-01-27T03:49:12.850Z,96241.98
2019-01-27T03:51:41.983Z,96246.59
2019-01-27T03:54:11.226Z,96239.84
2019-01-27T03:56:40.505Z,96237.03
2019-01-27T03:59:09.680Z,96229.11
2019-01-27T04:01:38.779Z,96222.22
2019-01-27T04:04:08.219Z,96220.41
2019-01-27T04:06:37.312Z,96216.61
2019-01-27T04:09:09.505Z,96212.48
2019-01-27T04:11:38.608Z,96208.53
2019-01-27T04:14:07.944Z,96205.39
2019-01-27T04:16:37.066Z,96201.44
2019-01-27T04:19:06.202Z,96190.68
2019-01-27T04:21:35.314Z,96187.91
2019-01-27T04:24:04.780Z,96185.77
2019-01-27T04:26:34.143Z,96179.33
2019-01-27T04:29:03.617Z,96182.79
2019-01-27T04:31:32.769Z,96172.89
2019-01-27T04:34:01.919Z,96173.06
2019-01-27T04:36:31.014Z,96168.27
2019-01-27T04:39:00.253Z,96163.49
2019-01-27T04:41:29.358Z,96156.23
2019-01-27T04:43:58.511Z,96162.50
2019-01-27T04:46:27.657Z,96153.90
2019-01-27T04:48:56.820Z,96147.33
2019-01-27T04:51:25.936Z,96149.80
2019-01-27T04:53:55.056Z,96144.03
2019-01-27T04:56:24.187Z,96140.87
2019-01-27T04:58:53.283Z,96132.48
2019-01-27T05:01:22.710Z,96127.53
2019-01-27T05:04:02.679Z,96130.84
2019-01-27T05:06:31.813Z,96118.95
2019-01-27T05:09:01.030Z,96122.26
2019-01-27T05:11:30.189Z,96112.36
2019-01-27T05:13:59.334Z,96116.31
2019-01-27T05:16:28.474Z,96106.42
2019-01-27T05:18:57.583Z,96102.12
2019-01-27T05:21:26.848Z,96093.36
2019-01-27T05:23:55.964Z,96092.87
2019-01-27T05:26:25.515Z,96092.05
2019-01-27T05:28:54.682Z,96093.88
2019-01-27T05:31:23.822Z,96089.25
2019-01-27T05:33:52.916Z,96081.83
2019-01-27T05:36:22.064Z,96075.73
2019-01-27T05:38:51.588Z,96074.06
2019-01-27T05:41:20.782Z,96065.66
2019-01-27T05:43:49.899Z,96069.63
2019-01-27T05:46:19.141Z,96065.83
2019-01-27T05:48:48.288Z,96060.56
2019-01-27T05:51:17.469Z,96060.23
2019-01-27T05:53:46.938Z,96063.86
2019-01-27T05:56:16.055Z,96062.19
2019-01-27T05:58:45.305Z,96052.97
2019-01-27T06:01:14.419Z,96045.06
2019-01-27T06:03:43.606Z,96045.39
2019-01-27T06:06:12.837Z,96051.00
2019-01-27T06:08:41.989Z,96037.81
2019-01-27T06:11:11.078Z,96045.41
2019-01-27T06:13:40.242Z,96035.47
2019-01-27T06:16:09.332Z,96035.98
2019-01-27T06:18:38.478Z,96029.06
2019-01-27T06:21:07.593Z,96025.11
2019-01-27T06:23:37.058Z,96022.95
2019-01-27T06:26:06.192Z,96014.87
2019-01-27T06:28:35.354Z,96013.38
2019-01-27T06:31:04.425Z,96022.63
2019-01-27T06:33:44.711Z,96016.69
2019-01-27T06:36:13.828Z,96026.23
2019-01-27T06:38:42.976Z,96026.58
2019-01-27T06:41:12.074Z,96018.66
2019-01-27T06:43:41.533Z,96026.23
2019-01-27T06:46:10.677Z,96016.69
2019-01-27T06:48:39.881Z,96010.73
2019-01-27T06:51:09.018Z,96002.16
2019-01-27T06:53:38.167Z,95994.24
2019-01-27T06:56:07.250Z,95991.11
2019-01-27T06:58:54.513Z,96000.03
2019-01-27T07:01:45.789Z,95995.91
2019-01-27T07:04:42.955Z,96002.16
2019-01-27T07:07:35.205Z,95994.08
2019-01-27T07:10:25.467Z,95980.72
2019-01-27T07:13:18.394Z,95986.98
2019-01-27T07:16:00.914Z,95990.13
2019-01-27T07:18:39.193Z,95981.20
2019-01-27T07:21:15.368Z,95980.24
2019-01-27T07:24:03.643Z,95971.33
2019-01-27T07:26:50.461Z,95965.70
2019-01-27T07:29:53.997Z,95969.17
2019-01-27T07:32:51.573Z,95964.05
2019-01-27T07:35:42.788Z,95968.16
2019-01-27T07:38:26.246Z,95962.55
2019-01-27T07:41:13.613Z,95965.54
2019-01-27T07:43:49.597Z,95957.28
2019-01-27T07:46:50.040Z,95954.81
2019-01-27T07:49:50.390Z,95953.45
2019-01-27T07:52:38.406Z,95946.86
2019-01-27T07:55:35.720Z,95940.41
2019-01-27T07:58:27.646Z,95937.28
2019-01-27T08:01:16.102Z,95931.17
2019-01-27T08:03:57.373Z,95930.67
2019-01-27T08:06:45.758Z,95922.91
2019-01-27T08:09:22.987Z,95931.83
2019-01-27T08:12:14.184Z,95921.95
2019-01-27T08:15:14.524Z,95912.39
2019-01-27T08:18:05.712Z,95915.19
2019-01-27T08:20:49.510Z,95910.03
2019-01-27T08:23:34.997Z,95907.91
2019-01-27T08:26:22.437Z,95914.30
2019-01-27T08:28:59.492Z,95913.30
2019-01-27T08:31:39.579Z,95916.73
2019-01-27T08:34:26.722Z,95905.05
2019-01-27T08:37:17.811Z,95904.36
2019-01-27T08:40:15.629Z,95894.30
2019-01-27T08:43:09.745Z,95894.91
2019-01-27T08:45:46.705Z,95890.59
2019-01-27T08:48:16.281Z,95892.03
2019-01-27T08:50:45.471Z,95890.36
2019-01-27T08:53:14.582Z,95890.00
2019-01-27T08:55:43.733Z,95893.15
2019-01-27T08:58:12.950Z,95895.47
2019-01-27T09:00:46.652Z,95887.94
2019-01-27T09:03:22.369Z,95892.36
2019-01-27T09:06:14.756Z,95886.94
2019-01-27T09:09:06.322Z,95889.19
2019-01-27T09:11:53.275Z,95889.16
2019-01-27T09:14:41.817Z,95877.75
2019-01-27T09:17:36.154Z,95884.05
2019-01-27T09:20:32.041Z,95881.55
2019-01-27T09:23:34.060Z,95884.51
2019-01-27T09:26:27.878Z,95880.40
2019-01-27T09:29:22.990Z,95872.47
2019-01-27T09:32:10.014Z,95865.36
2019-01-27T09:35:00.879Z,95854.78
2019-01-27T09:37:44.775Z,95849.41
2019-01-27T09:40:33.539Z,95844.03
2019-01-27T09:43:24.743Z,95850.91
2019-01-27T09:46:21.875Z,95841.02
2019-01-27T09:49:28.735Z,95840.75
2019-01-27T09:52:04.591Z,95835.33
2019-01-27T09:54:52.995Z,95836.97
2019-01-27T09:57:47.405Z,95838.92
2019-01-27T10:00:41.901Z,95835.92
2019-01-27T10:03:17.337Z,95836.14
2019-01-27T10:06:05.455Z,95838.52
2019-01-27T10:09:05.808Z,95835.00
2019-01-27T10:11:52.928Z,95835.14
2019-01-27T10:14:41.090Z,95837.05
2019-01-27T10:17:23.975Z,95833.55
2019-01-27T10:20:24.370Z,95830.53
2019-01-27T10:23:25.097Z,95833.30
2019-01-27T10:26:34.049Z,95842.09
2019-01-27T10:29:24.121Z,95834.05
2019-01-27T10:32:12.275Z,95827.83
2019-01-27T10:35:16.109Z,95823.28
2019-01-27T10:38:04.491Z,95822.47
2019-01-27T10:40:39.637Z,95816.45
2019-01-27T10:43:15.085Z,95812.61
2019-01-27T10:46:06.434Z,95814.12
2019-01-27T10:48:57.719Z,95801.41
2019-01-27T10:51:42.484Z,95799.56
2019-01-27T10:54:55.041Z,95795.92
2019-01-27T10:57:36.100Z,95784.38
2019-01-27T11:00:31.274Z,95786.36
2019-01-27T11:03:14.255Z,95776.27
2019-01-27T11:05:51.009Z,95778.03
2019-01-27T11:08:39.148Z,95769.08
2019-01-27T11:11:43.045Z,95771.47
2019-01-27T11:14:20.302Z,95778.03
2019-01-27T11:17:08.444Z,95771.41
2019-01-27T11:19:43.617Z,95769.91
2019-01-27T11:22:37.801Z,95762.86
2019-01-27T11:25:36.596Z,95758.25
2019-01-27T11:28:40.409Z,95753.00
2019-01-27T11:31:34.853Z,95747.43
2019-01-27T11:34:11.659Z,95742.89
2019-01-27T11:36:52.601Z,95736.30
2019-01-27T11:39:39.681Z,95736.48
2019-01-27T11:42:28.013Z,95730.00
2019-01-27T11:45:19.295Z,95728.80
2019-01-27T11:48:16.492Z,95726.91
2019-01-27T11:50:50.390Z,95718.43
2019-01-27T11:53:19.883Z,95710.33
2019-01-27T11:55:49.064Z,95709.83
2019-01-27T11:58:18.235Z,95717.70
2019-01-27T12:00:51.273Z,95709.64
2019-01-27T12:03:20.913Z,95716.58
2019-01-27T12:05:49.972Z,95708.22
2019-01-27T12:08:19.445Z,95702.77
2019-01-27T12:10:48.678Z,95698.80
2019-01-27T12:13:17.835Z,95700.06
2019-01-27T12:15:47.022Z,95691.68
2019-01-27T12:18:16.183Z,95697.48
2019-01-27T12:20:45.281Z,95687.58
2019-01-27T12:23:14.468Z,95686.70
2019-01-27T12:25:43.607Z,95677.55
2019-01-27T12:28:12.887Z,95667.47
2019-01-27T12:30:42.029Z,95668.55
2019-01-27T12:33:11.182Z,95676.77
2019-01-27T12:35:40.891Z,95665.59
2019-01-27T12:38:10.493Z,95676.77
2019-01-27T12:40:39.640Z,95662.69
2019-01-27T12:43:08.890Z,95662.29
2019-01-27T12:45:38.486Z,95666.93
2019-01-27T12:48:07.776Z,95668.68
2019-01-27T12:50:37.204Z,95665.67
2019-01-27T12:53:09.552Z,95648.69
2019-01-27T12:55:38.691Z,95661.00
2019-01-27T12:58:08.363Z,95665.53
2019-01-27T13:01:07.665Z,95656.27
2019-01-27T13:03:36.858Z,95665.59
2019-01-27T13:06:07.053Z,95667.81
2019-01-27T13:08:36.437Z,95671.96
2019-01-27T13:11:05.946Z,95670.20
2019-01-27T13:13:36.846Z,95666.45
2019-01-27T13:16:06.218Z,95664.82
2019-01-27T13:18:35.665Z,95662.64
2019-01-27T13:21:04.778Z,95660.27
2019-01-27T13:23:34.214Z,95659.95
2019-01-27T13:26:03.943Z,95648.99
2019-01-27T13:28:33.345Z,95653.20
2019-01-27T13:31:02.960Z,95649.67
2019-01-27T13:33:32.125Z,95649.67
2019-01-27T13:36:01.292Z,95650.69
2019-01-27T13:38:30.829Z,95638.05
2019-01-27T13:41:00.060Z,95630.78
2019-01-27T13:43:29.205Z,95636.32
2019-01-27T13:45:58.486Z,95639.25
2019-01-27T13:48:27.646Z,95638.97
2019-01-27T13:50:56.790Z,95636.52
2019-01-27T13:53:26.076Z,95634.79
2019-01-27T13:55:55.302Z,95633.78
2019-01-27T13:58:24.440Z,95635.55
2019-01-27T14:00:53.552Z,95625.41
2019-01-27T14:03:22.750Z,95622.19
2019-01-27T14:05:51.844Z,95619.86
2019-01-27T14:08:21.044Z,95618.00
2019-01-27T14:10:50.581Z,95613.15
2019-01-27T14:13:19.789Z,95610.82
2019-01-27T14:15:49.180Z,95606.09
2019-01-27T14:18:18.352Z,95608.62
2019-01-27T14:20:47.587Z,95598.55
2019-01-27T14:23:17.024Z,95608.05
2019-01-27T14:25:46.151Z,95606.16
2019-01-27T14:28:15.393Z,95611.64
2019-01-27T14:30:44.915Z,95616.14
2019-01-27T14:33:14.041Z,95611.09
2019-01-27T14:35:43.310Z,95608.95
2019-01-27T14:38:12.677Z,95602.16
2019-01-27T14:40:42.271Z,95602.47
2019-01-27T14:43:11.786Z,95602.63
2019-01-27T14:45:41.146Z,95603.81
2019-01-27T14:48:10.261Z,95609.66
2019-01-27T14:50:42.552Z,95604.13
2019-01-27T14:53:12.040Z,95603.69
2019-01-27T14:55:41.244Z,95601.23
2019-01-27T14:58:10.822Z,95605.38
2019-01-27T15:00:41.813Z,95606.26
2019-01-27T15:03:12.009Z,95606.89
2019-01-27T15:05:41.125Z,95601.98
2019-01-27T15:08:10.681Z,95609.53
2019-01-27T15:10:41.521Z,95609.22
2019-01-27T15:13:10.789Z,95605.06
2019-01-27T15:15:40.020Z,95607.47
2019-01-27T15:18:09.581Z,95608.84
2019-01-27T15:20:42.017Z,95606.95
2019-01-27T15:23:11.222Z,95603.52
2019-01-27T15:25:40.414Z,95612.31
2019-01-27T15:28:09.593Z,95612.00
2019-01-27T15:30:39.038Z,95609.61
2019-01-27T15:33:14.333Z,95614.33
2019-01-27T15:35:43.677Z,95606.39
2019-01-27T15:38:12.791Z,95607.08
2019-01-27T15:40:42.189Z,95616.89
2019-01-27T15:43:11.316Z,95615.83
2019-01-27T15:45:40.749Z,95620.98
2019-01-27T15:48:09.861Z,95617.47
2019-01-27T15:50:39.135Z,95616.78
2019-01-27T15:53:08.313Z,95616.46
2019-01-27T15:55:37.839Z,95621.80
2019-01-27T15:58:07.125Z,95616.06
2019-01-27T16:00:36.336Z,95615.62
2019-01-27T16:03:05.729Z,95613.63
2019-01-27T16:05:35.167Z,95609.34
2019-01-27T16:08:05.075Z,95614.17
2019-01-27T16:10:34.226Z,95612.72
2019-01-27T16:13:03.470Z,95606.75
2019-01-27T16:15:33.593Z,95616.93
2019-01-27T16:18:02.840Z,95616.95
2019-01-27T16:20:31.992Z,95612.03
2019-01-27T16:23:26.420Z,95614.72
2019-01-27T16:25:56.435Z,95615.55
2019-01-27T16:28:25.605Z,95614.31
2019-01-27T16:31:05.657Z,95622.41
2019-01-27T16:33:53.749Z,95625.05
2019-01-27T16:36:22.968Z,95620.46
2019-01-27T16:38:52.175Z,95620.33
2019-01-27T16:41:21.508Z,95626.52
2019-01-27T16:43:51.414Z,95622.09
2019-01-27T16:46:20.752Z,95621.91
2019-01-27T16:48:53.349Z,95623.60
2019-01-27T16:51:22.470Z,95623.47
2019-01-27T16:53:51.747Z,95622.41
2019-01-27T16:56:20.920Z,95618.32
2019-01-27T16:58:50.359Z,95618.41
2019-01-27T17:01:20.218Z,95617.63
2019-01-27T17:03:49.456Z,95619.50
2019-01-27T17:06:19.093Z,95622.28
2019-01-27T17:08:48.267Z,95619.73
2019-01-27T17:11:17.424Z,95624.36
2019-01-27T17:13:46.631Z,95620.55
2019-01-27T17:16:15.790Z,95622.75
2019-01-27T17:18:48.661Z,95618.78
2019-01-27T17:21:17.800Z,95624.06
2019-01-27T17:23:46.951Z,95618.59
2019-01-27T17:26:16.106Z,95621.14
2019-01-27T17:28:45.315Z,95620.39
2019-01-27T17:31:14.521Z,95621.23
2019-01-27T17:33:43.683Z,95621.21
2019-01-27T17:36:12.789Z,95623.05
2019-01-27T17:38:41.971Z,95617.91
2019-01-27T17:41:11.103Z,95619.91
2019-01-27T17:43:40.350Z,95624.92
2019-01-27T17:46:09.546Z,95625.36
2019-01-27T17:48:38.659Z,95625.83
2019-01-27T17:51:08.810Z,95631.80
2019-01-27T17:53:51.737Z,95633.05
2019-01-27T17:56:21.294Z,95633.05
2019-01-27T17:58:56.456Z,95633.16
2019-01-27T18:01:50.459Z,95632.48
2019-01-27T18:04:39.416Z,95635.44
2019-01-27T18:07:27.699Z,95638.97
2019-01-27T18:10:03.021Z,95641.84
2019-01-27T18:12:40.583Z,95640.41
2019-01-27T18:15:10.259Z,95643.19
2019-01-27T18:17:40.047Z,95644.98
2019-01-27T18:20:12.154Z,95648.08
2019-01-27T18:22:41.495Z,95646.77
2019-01-27T18:25:12.138Z,95653.13
2019-01-27T18:27:41.415Z,95651.31
2019-01-27T18:30:15.090Z,95652.91
2019-01-27T18:32:44.226Z,95644.67
2019-01-27T18:35:13.376Z,95647.14
2019-01-27T18:37:42.638Z,95653.91
2019-01-27T18:40:12.170Z,95656.51
2019-01-27T18:42:41.381Z,95661.66
2019-01-27T18:45:12.307Z,95654.94
2019-01-27T18:47:41.458Z,95656.87
2019-01-27T18:50:13.211Z,95656.87
2019-01-27T18:52:42.647Z,95656.39
2019-01-27T18:55:26.551Z,95655.94
2019-01-27T18:58:04.765Z,95661.12
2019-01-27T19:00:51.786Z,95666.42
2019-01-27T19:03:26.670Z,95659.23
2019-01-27T19:06:02.123Z,95666.61
2019-01-27T19:08:50.319Z,95669.56
2019-01-27T19:11:35.713Z,95667.73
2019-01-27T19:14:26.915Z,95670.05
2019-01-27T19:17:27.115Z,95670.88
2019-01-27T19:20:14.154Z,95679.51
2019-01-27T19:23:02.367Z,95679.65
2019-01-27T19:25:45.159Z,95674.75
2019-01-27T19:28:27.816Z,95678.42
2019-01-27T19:31:19.009Z,95684.98
2019-01-27T19:34:25.981Z,95677.70
2019-01-27T19:37:16.885Z,95688.86
2019-01-27T19:40:04.077Z,95687.55
2019-01-27T19:42:51.451Z,95687.64
2019-01-27T19:45:30.141Z,95696.47
2019-01-27T19:48:17.226Z,95696.60
2019-01-27T19:51:11.197Z,95703.07
2019-01-27T19:53:55.926Z,95696.42
2019-01-27T19:56:44.644Z,95702.98
2019-01-27T19:59:26.096Z,95706.30
2019-01-27T20:02:17.056Z,95721.15
2019-01-27T20:05:05.174Z,95718.86
2019-01-27T20:07:52.258Z,95721.15
2019-01-27T20:10:39.107Z,95720.83
2019-01-27T20:13:33.089Z,95716.22
2019-01-27T20:16:14.033Z,95737.03
2019-01-27T20:18:52.396Z,95735.75
2019-01-27T20:21:43.962Z,95738.71
2019-01-27T20:24:31.788Z,95744.03
2019-01-27T20:27:08.139Z,95753.34
2019-01-27T20:30:04.678Z,95753.99
2019-01-27T20:32:59.042Z,95770.02
2019-01-27T20:35:46.205Z,95773.13
2019-01-27T20:38:32.564Z,95772.78
2019-01-27T20:41:22.495Z,95780.56
2019-01-27T20:43:59.467Z,95790.30
2019-01-27T20:46:35.006Z,95796.73
2019-01-27T20:49:21.860Z,95792.95
2019-01-27T20:52:11.064Z,95800.02
2019-01-27T20:54:59.287Z,95799.23
2019-01-27T20:57:42.640Z,95814.69
2019-01-27T21:00:23.129Z,95818.50
2019-01-27T21:03:23.692Z,95817.67
2019-01-27T21:06:11.080Z,95818.19
2019-01-27T21:08:49.075Z,95818.50
2019-01-27T21:11:37.297Z,95826.25
2019-01-27T21:14:24.401Z,95826.75
2019-01-27T21:17:17.845Z,95838.61
2019-01-27T21:19:53.647Z,95834.31
2019-01-27T21:22:22.747Z,95844.88
2019-01-27T21:24:51.951Z,95856.39
2019-01-27T21:27:21.159Z,95853.92
2019-01-27T21:29:50.334Z,95868.25
2019-01-27T21:32:20.276Z,95862.31
2019-01-27T21:34:49.433Z,95876.48
2019-01-27T21:37:18.606Z,95873.69
2019-01-27T21:39:47.736Z,95875.00
2019-01-27T21:42:17.093Z,95882.41
2019-01-27T21:44:46.196Z,95886.85
2019-01-27T21:47:15.353Z,95889.34
2019-01-27T21:49:44.527Z,95893.77
2019-01-27T21:52:13.767Z,95893.77
2019-01-27T21:54:43.186Z,95886.52
2019-01-27T21:57:12.332Z,95896.08
2019-01-27T21:59:41.493Z,95900.69
2019-01-27T22:02:10.835Z,95899.70
2019-01-27T22:04:41.034Z,95904.64
2019-01-27T22:07:10.206Z,95909.10
2019-01-27T22:09:39.353Z,95912.56
2019-01-27T22:12:08.473Z,95917.49
2019-01-27T22:14:37.685Z,95918.66
2019-01-27T22:17:34.129Z,95918.00
